createdAt,value
2019-05-25T00:01:07.617Z,13.40
2019-05-25T00:03:34.991Z,13.30
2019-05-25T00:06:03.478Z,13.40
2019-05-25T00:08:31.222Z,13.40
2019-05-25T00:10:58.553Z,13.40
2019-05-25T00:13:26.143Z,13.30
2019-05-25T00:15:53.547Z,13.20
2019-05-25T00:18:20.665Z,13.10
2019-05-25T00:20:47.822Z,13.00
2019-05-25T00:23:15.654Z,12.90
2019-05-25T00:25:42.845Z,12.90
2019-05-25T00:28:10.082Z,12.90
2019-05-25T00:30:37.435Z,12.80
2019-05-25T00:33:04.635Z,12.70
2019-05-25T00:35:32.239Z,12.70
2019-05-25T00:37:59.438Z,12.60
2019-05-25T00:40:26.901Z,12.60
2019-05-25T00:42:54.224Z,12.60
2019-05-25T00:45:21.549Z,12.60
2019-05-25T00:47:48.552Z,12.70
2019-05-25T00:50:15.750Z,12.70
2019-05-25T00:52:43.250Z,12.70
2019-05-25T00:55:10.515Z,12.70
2019-05-25T00:57:38.311Z,12.60
2019-05-25T01:00:05.910Z,12.60
2019-05-25T01:02:33.653Z,12.60
2019-05-25T01:05:00.641Z,12.60
2019-05-25T01:07:28.090Z,12.60
2019-05-25T01:09:56.354Z,12.60
2019-05-25T01:12:23.422Z,12.60
2019-05-25T01:14:50.502Z,12.60
2019-05-25T01:17:17.571Z,12.60
2019-05-25T01:19:46.178Z,12.60
2019-05-25T01:22:13.252Z,12.60
2019-05-25T01:24:44.451Z,12.60
2019-05-25T01:27:10.128Z,12.50
2019-05-25T01:29:37.625Z,12.40
2019-05-25T01:32:04.786Z,12.40
2019-05-25T01:34:32.222Z,12.30
2019-05-25T01:36:59.346Z,12.30
2019-05-25T01:39:26.420Z,12.40
2019-05-25T01:41:53.403Z,12.30
2019-05-25T01:44:20.758Z,12.20
2019-05-25T01:46:48.387Z,12.20
2019-05-25T01:49:15.358Z,12.20
2019-05-25T01:51:42.433Z,12.20
2019-05-25T01:54:09.642Z,12.30
2019-05-25T01:56:36.733Z,12.40
2019-05-25T01:59:03.970Z,12.40
2019-05-25T02:01:31.057Z,12.30
2019-05-25T02:03:58.312Z,12.20
2019-05-25T02:06:25.486Z,12.20
2019-05-25T02:08:52.697Z,12.20
2019-05-25T02:11:20.057Z,12.20
2019-05-25T02:13:47.230Z,12.20
2019-05-25T02:16:14.519Z,12.20
2019-05-25T02:18:45.378Z,12.20
2019-05-25T02:21:11.006Z,12.20
2019-05-25T02:23:38.174Z,12.10
2019-05-25T02:26:05.618Z,12.20
2019-05-25T02:28:32.837Z,12.10
2019-05-25T02:31:00.060Z,12.10
2019-05-25T02:33:27.129Z,12.10
2019-05-25T02:35:54.229Z,12.10
2019-05-25T02:38:21.442Z,12.20
2019-05-25T02:40:48.681Z,12.20
2019-05-25T02:43:15.878Z,12.20
2019-05-25T02:45:43.074Z,12.10
2019-05-25T02:48:10.166Z,12.20
2019-05-25T02:50:37.244Z,12.10
2019-05-25T02:53:04.669Z,12.10
2019-05-25T02:55:34.779Z,12.00
2019-05-25T02:58:01.029Z,12.00
2019-05-25T03:00:32.435Z,12.00
2019-05-25T03:03:00.362Z,12.00
2019-05-25T03:05:27.607Z,12.00
2019-05-25T03:07:56.496Z,12.00
2019-05-25T03:10:23.672Z,12.00
2019-05-25T03:12:51.996Z,12.00
2019-05-25T03:15:19.430Z,12.00
2019-05-25T03:17:46.866Z,12.10
2019-05-25T03:20:14.589Z,12.10
2019-05-25T03:22:41.836Z,12.10
2019-05-25T03:25:09.277Z,12.10
2019-05-25T03:27:36.267Z,12.20
2019-05-25T03:30:04.844Z,12.20
2019-05-25T03:32:32.270Z,12.30
2019-05-25T03:34:59.777Z,12.20
2019-05-25T03:37:27.046Z,12.10
2019-05-25T03:39:54.224Z,12.10
2019-05-25T03:42:21.799Z,12.10
2019-05-25T03:44:48.974Z,12.10
2019-05-25T03:47:16.069Z,12.00
2019-05-25T03:49:43.144Z,12.10
2019-05-25T03:52:10.722Z,12.10
2019-05-25T03:54:37.917Z,12.10
2019-05-25T03:57:06.005Z,12.20
2019-05-25T03:59:33.073Z,12.10
2019-05-25T04:02:00.170Z,12.10
2019-05-25T04:04:27.151Z,12.10
2019-05-25T04:06:54.584Z,12.10
2019-05-25T04:09:21.901Z,12.10
2019-05-25T04:11:49.174Z,12.20
2019-05-25T04:14:16.249Z,12.30
2019-05-25T04:16:43.372Z,12.30
2019-05-25T04:19:10.356Z,12.30
2019-05-25T04:21:37.661Z,12.40
2019-05-25T04:24:04.750Z,12.40
2019-05-25T04:26:32.173Z,12.50
2019-05-25T04:28:59.509Z,12.50
2019-05-25T04:31:27.570Z,12.50
2019-05-25T04:33:55.002Z,12.50
2019-05-25T04:36:22.094Z,12.60
2019-05-25T04:38:49.269Z,12.60
2019-05-25T04:41:16.853Z,12.70
2019-05-25T04:43:44.229Z,12.70
2019-05-25T04:46:11.641Z,12.80
2019-05-25T04:48:38.649Z,12.80
2019-05-25T04:51:05.815Z,12.80
2019-05-25T04:53:33.002Z,12.90
2019-05-25T04:55:59.965Z,12.90
2019-05-25T04:58:27.576Z,13.00
2019-05-25T05:00:54.959Z,13.00
2019-05-25T05:03:22.233Z,12.90
2019-05-25T05:05:49.764Z,12.90
2019-05-25T05:08:17.022Z,12.90
2019-05-25T05:10:44.457Z,13.00
2019-05-25T05:13:11.651Z,12.90
2019-05-25T05:15:38.705Z,12.90
2019-05-25T05:18:05.773Z,13.00
2019-05-25T05:20:33.195Z,13.00
2019-05-25T05:23:00.463Z,13.00
2019-05-25T05:25:27.578Z,13.00
2019-05-25T05:27:54.780Z,12.90
2019-05-25T05:30:30.772Z,13.00
2019-05-25T05:32:58.033Z,13.00
2019-05-25T05:35:25.320Z,13.10
2019-05-25T05:37:52.468Z,13.10
2019-05-25T05:40:19.873Z,13.10
2019-05-25T05:42:49.340Z,13.10
2019-05-25T05:45:16.636Z,13.20
2019-05-25T05:47:45.638Z,13.20
2019-05-25T05:50:12.909Z,13.30
2019-05-25T05:52:40.413Z,13.30
2019-05-25T05:55:09.250Z,13.30
2019-05-25T05:57:36.631Z,13.20
2019-05-25T06:00:05.201Z,13.20
2019-05-25T06:02:32.690Z,13.20
2019-05-25T06:04:59.989Z,13.30
2019-05-25T06:07:27.602Z,13.30
2019-05-25T06:09:54.801Z,13.30
2019-05-25T06:12:21.985Z,13.40
2019-05-25T06:14:48.973Z,13.50
2019-05-25T06:17:16.117Z,13.50
2019-05-25T06:19:43.426Z,13.60
2019-05-25T06:22:10.583Z,13.70
2019-05-25T06:24:37.993Z,13.80
2019-05-25T06:27:05.169Z,13.90
2019-05-25T06:29:32.617Z,13.70
2019-05-25T06:31:59.695Z,13.70
2019-05-25T06:34:26.838Z,13.70
2019-05-25T06:36:55.739Z,13.60
2019-05-25T06:39:22.949Z,13.60
2019-05-25T06:41:50.195Z,13.50
2019-05-25T06:44:17.504Z,13.60
2019-05-25T06:46:44.970Z,13.60
2019-05-25T06:49:12.276Z,13.60
2019-05-25T06:51:39.367Z,13.70
2019-05-25T06:54:06.554Z,13.80
2019-05-25T06:56:33.756Z,13.80
2019-05-25T06:59:01.199Z,13.80
2019-05-25T07:01:28.281Z,13.80
2019-05-25T07:03:55.448Z,13.80
2019-05-25T07:06:22.419Z,13.90
2019-05-25T07:08:49.628Z,13.90
2019-05-25T07:11:16.816Z,13.90
2019-05-25T07:13:43.890Z,13.90
2019-05-25T07:16:11.090Z,13.90
2019-05-25T07:18:38.265Z,13.80
2019-05-25T07:21:05.372Z,13.80
2019-05-25T07:23:32.549Z,13.80
2019-05-25T07:25:59.610Z,13.80
2019-05-25T07:28:26.793Z,13.70
2019-05-25T07:30:54.002Z,13.60
2019-05-25T07:33:21.349Z,13.70
2019-05-25T07:35:48.470Z,13.60
2019-05-25T07:38:15.810Z,13.60
2019-05-25T07:40:43.009Z,13.50
2019-05-25T07:43:10.115Z,13.50
2019-05-25T07:45:37.213Z,13.40
2019-05-25T07:48:04.654Z,13.50
2019-05-25T07:50:31.813Z,13.60
2019-05-25T07:52:58.882Z,13.60
2019-05-25T07:55:25.967Z,13.60
2019-05-25T07:57:53.341Z,13.60
2019-05-25T08:00:20.857Z,13.70
2019-05-25T08:02:48.299Z,13.70
2019-05-25T08:05:16.556Z,13.70
2019-05-25T08:07:43.726Z,13.80
2019-05-25T08:10:11.378Z,13.90
2019-05-25T08:12:38.579Z,14.10
2019-05-25T08:15:06.478Z,14.10
2019-05-25T08:17:35.270Z,14.10
2019-05-25T08:20:03.138Z,14.10
2019-05-25T08:22:31.533Z,14.00
2019-05-25T08:24:58.613Z,13.80
2019-05-25T08:27:25.717Z,13.60
2019-05-25T08:29:53.146Z,13.40
2019-05-25T08:32:20.247Z,13.30
2019-05-25T08:34:47.717Z,13.30
2019-05-25T08:37:15.112Z,13.30
2019-05-25T08:39:42.097Z,13.40
2019-05-25T08:42:09.206Z,13.60
2019-05-25T08:44:36.635Z,13.80
2019-05-25T08:47:03.880Z,14.00
2019-05-25T08:49:31.154Z,14.30
2019-05-25T08:51:58.491Z,14.50
2019-05-25T08:54:25.719Z,14.50
2019-05-25T08:56:52.908Z,14.70
2019-05-25T08:59:20.341Z,14.80
2019-05-25T09:01:47.835Z,15.00
2019-05-25T09:04:15.195Z,15.20
2019-05-25T09:06:42.291Z,15.40
2019-05-25T09:09:09.510Z,15.50
2019-05-25T09:11:37.195Z,15.70
2019-05-25T09:14:04.671Z,15.90
2019-05-25T09:16:32.188Z,15.90
2019-05-25T09:18:59.641Z,16.00
2019-05-25T09:21:26.942Z,16.10
2019-05-25T09:23:54.519Z,16.10
2019-05-25T09:26:21.577Z,16.10
2019-05-25T09:29:03.498Z,16.30
2019-05-25T09:31:18.097Z,16.50
2019-05-25T09:33:45.725Z,16.80
2019-05-25T09:36:13.062Z,16.90
2019-05-25T09:38:43.239Z,17.10
2019-05-25T09:41:09.418Z,17.40
2019-05-25T09:43:36.813Z,17.60
2019-05-25T09:46:04.338Z,17.80
2019-05-25T09:48:31.698Z,17.90
2019-05-25T09:50:58.866Z,18.00
2019-05-25T09:53:25.993Z,18.00
2019-05-25T09:55:53.156Z,17.90
2019-05-25T09:58:20.238Z,17.80
2019-05-25T10:00:47.423Z,17.90
2019-05-25T10:03:14.705Z,18.00
2019-05-25T10:05:41.870Z,17.90
2019-05-25T10:08:09.082Z,17.90
2019-05-25T10:10:36.275Z,18.00
2019-05-25T10:13:03.463Z,18.00
2019-05-25T10:15:30.679Z,18.10
2019-05-25T10:17:57.879Z,18.20
2019-05-25T10:20:25.212Z,18.30
2019-05-25T10:22:52.478Z,18.50
2019-05-25T10:25:19.852Z,18.60
2019-05-25T10:27:47.032Z,18.70
2019-05-25T10:30:15.208Z,18.70
2019-05-25T10:32:42.299Z,18.70
2019-05-25T10:35:09.877Z,18.70
2019-05-25T10:37:37.132Z,18.70
2019-05-25T10:40:05.819Z,18.80
2019-05-25T10:42:33.090Z,18.80
2019-05-25T10:45:00.501Z,18.80
2019-05-25T10:47:27.916Z,18.80
2019-05-25T10:49:55.433Z,18.80
2019-05-25T10:52:22.601Z,18.90
2019-05-25T10:54:49.786Z,18.80
2019-05-25T10:57:17.253Z,18.60
2019-05-25T10:59:52.843Z,18.70
2019-05-25T11:02:13.961Z,18.70
2019-05-25T11:04:40.964Z,18.80
2019-05-25T11:07:08.139Z,18.80
2019-05-25T11:09:35.231Z,18.70
2019-05-25T11:12:02.427Z,18.80
2019-05-25T11:14:30.269Z,18.80
2019-05-25T11:16:57.706Z,18.70
2019-05-25T11:19:28.085Z,18.90
2019-05-25T11:21:55.246Z,19.00
2019-05-25T11:24:22.466Z,19.00
2019-05-25T11:26:49.666Z,19.10
2019-05-25T11:29:16.857Z,19.10
2019-05-25T11:31:53.947Z,19.10
2019-05-25T11:34:13.408Z,19.20
2019-05-25T11:36:40.573Z,19.20
2019-05-25T11:39:07.770Z,19.30
2019-05-25T11:41:34.945Z,19.30
2019-05-25T11:44:02.234Z,19.40
2019-05-25T11:46:29.559Z,19.30
2019-05-25T11:48:57.024Z,19.40
2019-05-25T11:51:24.227Z,19.40
2019-05-25T11:53:51.489Z,19.50
2019-05-25T11:56:18.704Z,19.60
2019-05-25T11:58:47.752Z,19.70
2019-05-25T12:01:15.334Z,19.70
2019-05-25T12:03:42.423Z,19.80
2019-05-25T12:06:09.754Z,19.80
2019-05-25T12:08:37.069Z,19.80
2019-05-25T12:11:04.266Z,19.80
2019-05-25T12:13:32.172Z,19.90
2019-05-25T12:15:59.622Z,19.80
2019-05-25T12:18:27.047Z,19.90
2019-05-25T12:20:54.094Z,19.80
2019-05-25T12:23:21.163Z,19.70
2019-05-25T12:25:48.523Z,19.70
2019-05-25T12:28:15.690Z,19.70
2019-05-25T12:30:43.149Z,19.70
2019-05-25T12:33:10.590Z,19.80
2019-05-25T12:35:37.858Z,19.80
2019-05-25T12:38:05.200Z,19.80
2019-05-25T12:40:32.467Z,19.90
2019-05-25T12:42:59.451Z,20.00
2019-05-25T12:45:26.867Z,20.10
2019-05-25T12:47:54.288Z,20.10
2019-05-25T12:50:21.966Z,20.00
2019-05-25T12:52:49.474Z,19.80
2019-05-25T12:55:16.854Z,19.90
2019-05-25T12:57:44.294Z,19.90
2019-05-25T13:00:16.142Z,19.90
2019-05-25T13:02:42.354Z,19.80
2019-05-25T13:05:09.902Z,19.70
2019-05-25T13:07:37.078Z,19.70
2019-05-25T13:10:04.581Z,19.50
2019-05-25T13:12:31.740Z,19.40
2019-05-25T13:14:59.132Z,19.40
2019-05-25T13:17:26.202Z,19.60
2019-05-25T13:19:53.394Z,19.70
2019-05-25T13:22:20.622Z,19.80
2019-05-25T13:24:48.016Z,19.90
2019-05-25T13:27:15.562Z,19.90
2019-05-25T13:29:42.862Z,20.00
2019-05-25T13:32:10.062Z,20.10
2019-05-25T13:34:37.230Z,20.20
2019-05-25T13:37:04.827Z,20.20
2019-05-25T13:39:31.994Z,20.30
2019-05-25T13:41:59.350Z,20.20
2019-05-25T13:44:26.794Z,20.10
2019-05-25T13:46:53.991Z,20.10
2019-05-25T13:49:21.452Z,20.10
2019-05-25T13:51:48.800Z,20.10
2019-05-25T13:54:16.078Z,20.20
2019-05-25T13:56:43.333Z,20.40
2019-05-25T13:59:10.757Z,20.20
2019-05-25T14:01:38.583Z,20.20
2019-05-25T14:04:06.022Z,20.10
2019-05-25T14:06:33.463Z,20.10
2019-05-25T14:09:00.536Z,19.70
2019-05-25T14:11:27.647Z,19.60
2019-05-25T14:13:54.949Z,19.60
2019-05-25T14:16:22.536Z,19.30
2019-05-25T14:18:49.626Z,19.10
2019-05-25T14:21:16.617Z,19.20
2019-05-25T14:23:43.903Z,19.20
2019-05-25T14:26:12.378Z,19.30
2019-05-25T14:28:39.561Z,19.50
2019-05-25T14:31:06.675Z,19.60
2019-05-25T14:33:33.771Z,19.70
2019-05-25T14:36:01.042Z,19.70
2019-05-25T14:38:28.527Z,19.70
2019-05-25T14:40:55.975Z,19.70
2019-05-25T14:43:23.446Z,19.70
2019-05-25T14:45:53.348Z,19.70
2019-05-25T14:48:19.941Z,19.60
2019-05-25T14:50:47.397Z,19.50
2019-05-25T14:53:14.794Z,19.50
2019-05-25T14:55:42.296Z,19.50
2019-05-25T14:58:12.760Z,19.50
2019-05-25T15:00:38.957Z,19.50
2019-05-25T15:03:07.169Z,19.50
2019-05-25T15:05:34.672Z,19.50
2019-05-25T15:08:01.881Z,19.50
2019-05-25T15:10:29.356Z,19.50
2019-05-25T15:12:56.537Z,19.70
2019-05-25T15:15:23.757Z,19.90
2019-05-25T15:17:50.878Z,20.00
2019-05-25T15:20:18.180Z,20.10
2019-05-25T15:22:47.063Z,20.10
2019-05-25T15:25:15.484Z,20.30
2019-05-25T15:27:42.685Z,20.20
2019-05-25T15:30:11.682Z,20.10
2019-05-25T15:32:39.138Z,20.00
2019-05-25T15:35:06.748Z,20.00
2019-05-25T15:37:33.937Z,20.00
2019-05-25T15:40:01.929Z,20.00
2019-05-25T15:42:29.437Z,20.10
2019-05-25T15:44:56.905Z,20.20
2019-05-25T15:47:24.349Z,20.00
2019-05-25T15:49:51.632Z,19.90
2019-05-25T15:52:19.065Z,19.90
2019-05-25T15:54:46.622Z,19.80
2019-05-25T15:57:13.740Z,19.80
2019-05-25T15:59:40.928Z,19.90
2019-05-25T16:02:08.468Z,20.10
2019-05-25T16:04:35.795Z,20.30
2019-05-25T16:07:03.519Z,20.40
2019-05-25T16:09:30.707Z,20.70
2019-05-25T16:11:58.310Z,20.70
2019-05-25T16:14:25.438Z,20.80
2019-05-25T16:16:53.027Z,20.70
2019-05-25T16:19:20.290Z,20.60
2019-05-25T16:21:47.479Z,20.60
2019-05-25T16:24:15.035Z,20.60
2019-05-25T16:26:45.945Z,20.60
2019-05-25T16:29:11.789Z,20.70
2019-05-25T16:31:39.124Z,20.90
2019-05-25T16:34:06.726Z,21.00
2019-05-25T16:36:34.509Z,21.10
2019-05-25T16:39:01.753Z,21.20
2019-05-25T16:41:30.537Z,21.00
2019-05-25T16:43:57.734Z,21.00
2019-05-25T16:46:25.163Z,20.70
2019-05-25T16:48:52.456Z,20.80
2019-05-25T16:51:20.082Z,20.80
2019-05-25T16:53:47.629Z,20.70
2019-05-25T16:56:14.844Z,20.70
2019-05-25T16:58:42.189Z,20.60
2019-05-25T17:01:09.724Z,20.60
2019-05-25T17:03:37.485Z,20.60
2019-05-25T17:06:04.971Z,20.60
2019-05-25T17:08:32.334Z,20.50
2019-05-25T17:10:59.714Z,20.50
2019-05-25T17:13:27.127Z,20.60
2019-05-25T17:15:54.604Z,20.60
2019-05-25T17:18:22.152Z,20.60
2019-05-25T17:20:49.408Z,20.70
2019-05-25T17:23:16.602Z,20.70
2019-05-25T17:25:44.307Z,20.60
2019-05-25T17:28:11.784Z,20.50
2019-05-25T17:30:41.258Z,20.40
2019-05-25T17:33:09.310Z,20.40
2019-05-25T17:35:36.677Z,20.30
2019-05-25T17:38:03.881Z,20.30
2019-05-25T17:40:31.386Z,20.20
2019-05-25T17:42:58.897Z,20.10
2019-05-25T17:45:26.085Z,20.10
2019-05-25T17:47:53.317Z,20.00
2019-05-25T17:50:20.748Z,19.90
2019-05-25T17:52:47.925Z,19.80
2019-05-25T17:55:15.113Z,19.70
2019-05-25T17:57:42.363Z,19.50
2019-05-25T18:00:10.578Z,19.40
2019-05-25T18:02:38.127Z,19.30
2019-05-25T18:05:06.083Z,19.20
2019-05-25T18:07:33.248Z,19.10
2019-05-25T18:10:00.469Z,19.00
2019-05-25T18:12:27.703Z,19.00
2019-05-25T18:14:54.845Z,19.00
2019-05-25T18:17:22.307Z,18.90
2019-05-25T18:19:50.920Z,18.90
2019-05-25T18:22:18.436Z,18.70
2019-05-25T18:24:45.938Z,18.70
2019-05-25T18:27:13.116Z,18.70
2019-05-25T18:29:40.814Z,18.50
2019-05-25T18:32:08.150Z,18.30
2019-05-25T18:34:35.525Z,18.20
2019-05-25T18:37:02.764Z,18.30
2019-05-25T18:39:30.316Z,18.20
2019-05-25T18:41:57.522Z,18.30
2019-05-25T18:44:25.076Z,18.30
2019-05-25T18:46:52.271Z,18.30
2019-05-25T18:49:19.510Z,18.20
2019-05-25T18:51:46.709Z,18.20
2019-05-25T18:54:13.874Z,18.00
2019-05-25T18:56:41.366Z,17.90
2019-05-25T18:59:13.069Z,17.80
2019-05-25T19:01:40.535Z,17.70
2019-05-25T19:04:07.950Z,17.70
2019-05-25T19:06:35.166Z,17.70
2019-05-25T19:09:02.864Z,17.50
2019-05-25T19:11:30.312Z,17.40
2019-05-25T19:13:57.548Z,17.40
2019-05-25T19:16:24.945Z,17.40
2019-05-25T19:18:52.218Z,17.30
2019-05-25T19:21:19.410Z,17.30
2019-05-25T19:23:46.857Z,17.30
2019-05-25T19:26:14.101Z,17.20
2019-05-25T19:28:41.723Z,17.20
2019-05-25T19:31:08.927Z,17.20
2019-05-25T19:33:36.006Z,17.20
2019-05-25T19:36:03.486Z,17.10
2019-05-25T19:38:30.746Z,17.00
2019-05-25T19:40:57.963Z,17.10
2019-05-25T19:43:25.512Z,17.00
2019-05-25T19:45:52.746Z,17.00
2019-05-25T19:48:20.528Z,16.90
2019-05-25T19:50:48.277Z,16.80
2019-05-25T19:53:19.713Z,16.60
2019-05-25T19:55:46.892Z,16.50
2019-05-25T19:58:14.337Z,16.40
2019-05-25T20:00:41.628Z,16.50
2019-05-25T20:03:09.038Z,16.40
2019-05-25T20:05:36.529Z,16.30
2019-05-25T20:08:03.839Z,16.20
2019-05-25T20:10:31.410Z,16.10
2019-05-25T20:12:58.593Z,16.10
2019-05-25T20:15:26.125Z,16.00
2019-05-25T20:17:53.457Z,16.00
2019-05-25T20:20:20.900Z,16.00
2019-05-25T20:22:47.996Z,16.00
2019-05-25T20:25:15.410Z,15.90
2019-05-25T20:27:42.751Z,15.90
2019-05-25T20:30:10.206Z,15.90
2019-05-25T20:32:37.519Z,16.00
2019-05-25T20:35:05.119Z,15.90
2019-05-25T20:37:32.250Z,15.90
2019-05-25T20:39:59.630Z,15.80
2019-05-25T20:42:26.838Z,15.80
2019-05-25T20:44:53.982Z,15.70
2019-05-25T20:47:21.621Z,15.70
2019-05-25T20:49:48.897Z,15.60
2019-05-25T20:52:16.266Z,15.50
2019-05-25T20:54:43.592Z,15.40
2019-05-25T20:57:10.906Z,15.30
2019-05-25T20:59:38.366Z,15.10
2019-05-25T21:02:06.704Z,15.10
2019-05-25T21:04:34.077Z,15.00
2019-05-25T21:07:01.741Z,14.90
2019-05-25T21:09:28.935Z,14.90
2019-05-25T21:11:57.019Z,14.90
2019-05-25T21:14:24.007Z,14.90
2019-05-25T21:16:51.346Z,14.90
2019-05-25T21:19:18.501Z,14.90
2019-05-25T21:21:45.737Z,14.80
2019-05-25T21:24:13.200Z,14.70
2019-05-25T21:26:40.702Z,14.60
2019-05-25T21:29:08.035Z,14.60
2019-05-25T21:31:35.510Z,14.60
2019-05-25T21:34:02.843Z,14.60
2019-05-25T21:36:30.182Z,14.50
2019-05-25T21:38:57.650Z,14.30
2019-05-25T21:41:24.940Z,14.10
2019-05-25T21:43:52.032Z,14.00
2019-05-25T21:46:19.369Z,14.00
2019-05-25T21:48:46.810Z,14.00
2019-05-25T21:51:14.262Z,13.50
2019-05-25T21:53:42.343Z,13.60
2019-05-25T21:56:09.462Z,13.70
2019-05-25T21:58:36.795Z,13.70
2019-05-25T22:01:05.308Z,13.70
2019-05-25T22:03:34.443Z,13.70
2019-05-25T22:06:02.877Z,13.70
2019-05-25T22:08:30.313Z,13.70
2019-05-25T22:10:57.559Z,13.70
2019-05-25T22:13:28.696Z,13.60
2019-05-25T22:15:53.920Z,13.50
2019-05-25T22:18:21.488Z,13.40
2019-05-25T22:20:49.888Z,13.40
2019-05-25T22:23:17.223Z,13.30
2019-05-25T22:25:44.397Z,13.30
2019-05-25T22:28:11.681Z,13.10
2019-05-25T22:30:39.218Z,13.10
2019-05-25T22:33:06.428Z,13.10
2019-05-25T22:35:34.037Z,13.10
2019-05-25T22:38:02.502Z,13.10
2019-05-25T22:40:29.564Z,13.10
2019-05-25T22:42:56.741Z,13.10
2019-05-25T22:45:23.938Z,13.10
2019-05-25T22:47:51.128Z,13.00
2019-05-25T22:50:18.396Z,12.90
2019-05-25T22:52:45.582Z,12.90
2019-05-25T22:55:12.904Z,13.00
2019-05-25T22:57:40.114Z,12.90
2019-05-25T23:00:09.259Z,12.60
2019-05-25T23:02:37.688Z,12.60
2019-05-25T23:05:07.264Z,12.60
2019-05-25T23:07:34.567Z,12.70
2019-05-25T23:10:01.762Z,12.70
2019-05-25T23:12:28.842Z,12.80
2019-05-25T23:14:56.358Z,12.70
2019-05-25T23:17:23.451Z,12.50
2019-05-25T23:19:50.574Z,12.60
2019-05-25T23:22:18.725Z,12.40
2019-05-25T23:24:45.966Z,12.40
2019-05-25T23:27:16.001Z,12.30
2019-05-25T23:29:43.442Z,12.30
2019-05-25T23:32:10.538Z,12.20
2019-05-25T23:34:37.723Z,12.20
2019-05-25T23:37:14.141Z,12.20
2019-05-25T23:39:33.898Z,12.30
2019-05-25T23:42:01.355Z,12.40
2019-05-25T23:44:28.582Z,12.30
2019-05-25T23:46:56.277Z,12.40
2019-05-25T23:49:23.374Z,12.50
2019-05-25T23:51:51.074Z,12.30
2019-05-25T23:54:18.190Z,12.20
2019-05-25T23:56:45.390Z,12.10
2019-05-25T23:59:12.508Z,12.10
